createdAt,value
2019-04-05T00:00:12.522Z,17.10
2019-04-05T00:02:42.863Z,17.35
2019-04-05T00:05:11.686Z,16.35
2019-04-05T00:07:40.461Z,17.95
2019-04-05T00:10:09.289Z,17.15
2019-04-05T00:12:38.079Z,18.12
2019-04-05T00:15:15.319Z,17.07
2019-04-05T00:17:37.344Z,16.82
2019-04-05T00:20:05.958Z,17.80
2019-04-05T00:22:34.614Z,18.10
2019-04-05T00:25:03.242Z,19.32
2019-04-05T00:27:32.029Z,18.30
2019-04-05T00:30:00.653Z,18.70
2019-04-05T00:32:29.324Z,19.35
2019-04-05T00:34:57.969Z,19.40
2019-04-05T00:37:26.677Z,21.85
2019-04-05T00:39:55.313Z,20.80
2019-04-05T00:42:24.050Z,20.95
2019-04-05T00:44:52.649Z,20.88
2019-04-05T00:47:21.415Z,22.22
2019-04-05T00:49:50.042Z,21.82
2019-04-05T00:52:18.739Z,21.65
2019-04-05T00:54:47.357Z,21.70
2019-04-05T00:57:16.081Z,21.15
2019-04-05T00:59:44.729Z,22.17
2019-04-05T01:02:13.450Z,23.47
2019-04-05T01:04:42.257Z,20.15
2019-04-05T01:07:10.846Z,21.77
2019-04-05T01:09:39.564Z,21.73
2019-04-05T01:12:08.304Z,22.13
2019-04-05T01:14:37.053Z,21.73
2019-04-05T01:17:06.645Z,23.27
2019-04-05T01:19:35.422Z,22.55
2019-04-05T01:22:05.671Z,21.35
2019-04-05T01:24:34.650Z,21.27
2019-04-05T01:27:03.700Z,22.07
2019-04-05T01:29:32.291Z,22.65
2019-04-05T01:32:01.065Z,22.32
2019-04-05T01:34:29.753Z,21.90
2019-04-05T01:36:58.564Z,22.70
2019-04-05T01:39:27.296Z,22.15
2019-04-05T01:41:56.129Z,21.95
2019-04-05T01:44:24.685Z,22.00
2019-04-05T01:46:53.391Z,22.32
2019-04-05T01:49:22.163Z,21.25
2019-04-05T01:51:50.903Z,21.23
2019-04-05T01:54:19.695Z,20.90
2019-04-05T01:56:48.321Z,20.90
2019-04-05T01:59:16.949Z,21.45
2019-04-05T02:01:45.635Z,22.13
2019-04-05T02:04:14.347Z,22.07
2019-04-05T02:06:43.264Z,22.73
2019-04-05T02:09:11.960Z,23.98
2019-04-05T02:11:40.741Z,23.73
2019-04-05T02:14:09.378Z,24.07
2019-04-05T02:16:38.003Z,23.92
2019-04-05T02:19:06.561Z,25.08
2019-04-05T02:21:35.295Z,24.37
2019-04-05T02:24:04.025Z,24.07
2019-04-05T02:26:32.743Z,23.30
2019-04-05T02:29:03.087Z,24.67
2019-04-05T02:31:31.653Z,24.07
2019-04-05T02:34:00.386Z,25.70
2019-04-05T02:36:29.033Z,25.02
2019-04-05T02:38:57.682Z,23.87
2019-04-05T02:41:27.726Z,23.83
2019-04-05T02:43:57.896Z,26.12
2019-04-05T02:46:26.692Z,26.82
2019-04-05T02:48:55.857Z,26.33
2019-04-05T02:51:25.888Z,26.23
2019-04-05T02:53:54.997Z,26.37
2019-04-05T02:56:23.631Z,25.57
2019-04-05T02:58:52.689Z,26.17
2019-04-05T03:01:22.814Z,25.45
2019-04-05T03:03:51.589Z,25.75
2019-04-05T03:06:20.363Z,26.37
2019-04-05T03:08:48.876Z,26.57
2019-04-05T03:11:18.956Z,25.85
2019-04-05T03:13:49.447Z,27.05
2019-04-05T03:16:19.654Z,26.35
2019-04-05T03:18:54.059Z,26.55
2019-04-05T03:21:23.699Z,25.57
2019-04-05T03:23:53.637Z,26.27
2019-04-05T03:26:23.686Z,26.20
2019-04-05T03:28:53.910Z,26.10
2019-04-05T03:31:25.182Z,26.20
2019-04-05T03:33:52.816Z,26.07
2019-04-05T03:36:21.775Z,26.65
2019-04-05T03:38:51.559Z,25.90
2019-04-05T03:41:20.408Z,27.27
2019-04-05T03:43:49.717Z,27.27
2019-04-05T03:46:18.400Z,27.58
2019-04-05T03:48:48.201Z,27.87
2019-04-05T03:51:17.985Z,26.87
2019-04-05T03:53:46.518Z,26.52
2019-04-05T03:56:15.258Z,26.73
2019-04-05T03:58:43.967Z,27.57
2019-04-05T04:01:12.607Z,27.15
2019-04-05T04:03:41.340Z,26.33
2019-04-05T04:06:10.085Z,27.10
2019-04-05T04:08:38.798Z,25.72
2019-04-05T04:11:07.688Z,26.52
2019-04-05T04:13:36.320Z,26.10
2019-04-05T04:16:05.112Z,25.88
2019-04-05T04:18:33.734Z,24.85
2019-04-05T04:21:03.861Z,24.90
2019-04-05T04:23:32.487Z,25.95
2019-04-05T04:26:01.633Z,26.25
2019-04-05T04:28:30.368Z,25.87
2019-04-05T04:30:59.154Z,24.75
2019-04-05T04:33:28.229Z,26.15
2019-04-05T04:35:56.830Z,26.70
2019-04-05T04:38:25.772Z,26.10
2019-04-05T04:40:54.585Z,25.05
2019-04-05T04:43:23.285Z,25.90
2019-04-05T04:45:51.811Z,25.25
2019-04-05T04:48:20.465Z,25.50
2019-04-05T04:50:49.295Z,26.52
2019-04-05T04:53:18.195Z,26.87
2019-04-05T04:55:46.816Z,27.30
2019-04-05T04:58:15.455Z,26.10
2019-04-05T05:00:44.173Z,26.97
2019-04-05T05:03:12.867Z,28.05
2019-04-05T05:05:41.545Z,26.50
2019-04-05T05:08:10.166Z,25.32
2019-04-05T05:10:38.821Z,27.40
2019-04-05T05:13:07.361Z,28.75
2019-04-05T05:15:36.129Z,27.45
2019-04-05T05:18:04.787Z,28.17
2019-04-05T05:20:33.437Z,28.55
2019-04-05T05:23:01.985Z,28.40
2019-04-05T05:25:30.731Z,29.23
2019-04-05T05:27:59.636Z,25.82
2019-04-05T05:30:28.223Z,28.27
2019-04-05T05:32:56.989Z,28.40
2019-04-05T05:35:25.737Z,28.90
2019-04-05T05:37:54.608Z,29.25
2019-04-05T05:40:34.255Z,29.60
2019-04-05T05:42:53.626Z,29.15
2019-04-05T05:45:22.382Z,27.70
2019-04-05T05:47:52.343Z,27.70
2019-04-05T05:50:21.282Z,27.62
2019-04-05T05:52:50.204Z,27.75
2019-04-05T05:55:18.774Z,26.97
2019-04-05T05:57:47.383Z,27.55
2019-04-05T06:00:18.872Z,27.37
2019-04-05T06:02:48.522Z,28.73
2019-04-05T06:05:17.488Z,25.80
2019-04-05T06:07:46.088Z,26.33
2019-04-05T06:10:14.770Z,26.93
2019-04-05T06:12:43.400Z,27.75
2019-04-05T06:15:12.116Z,26.85
2019-04-05T06:17:40.734Z,27.85
2019-04-05T06:20:12.141Z,26.80
2019-04-05T06:22:40.750Z,27.75
2019-04-05T06:25:12.297Z,28.40
2019-04-05T06:27:40.913Z,27.02
2019-04-05T06:30:09.874Z,28.87
2019-04-05T06:32:39.973Z,26.87
2019-04-05T06:35:08.635Z,27.13
2019-04-05T06:37:37.157Z,26.68
2019-04-05T06:40:05.840Z,26.17
2019-04-05T06:42:34.409Z,27.22
2019-04-05T06:45:03.296Z,27.85
2019-04-05T06:47:31.830Z,28.40
2019-04-05T06:50:01.382Z,27.90
2019-04-05T06:52:30.032Z,27.83
2019-04-05T06:54:58.764Z,28.77
2019-04-05T06:57:27.386Z,27.35
2019-04-05T06:59:55.990Z,29.55
2019-04-05T07:02:24.720Z,28.55
2019-04-05T07:04:53.356Z,28.80
2019-04-05T07:07:21.997Z,28.73
2019-04-05T07:09:50.610Z,27.95
2019-04-05T07:12:20.781Z,29.10
2019-04-05T07:14:50.819Z,29.30
2019-04-05T07:17:19.604Z,28.75
2019-04-05T07:19:48.237Z,29.18
2019-04-05T07:22:16.842Z,30.17
2019-04-05T07:24:45.422Z,29.10
2019-04-05T07:27:14.074Z,29.57
2019-04-05T07:29:42.703Z,30.12
2019-04-05T07:32:11.349Z,28.87
2019-04-05T07:34:39.991Z,29.92
2019-04-05T07:37:08.632Z,29.30
2019-04-05T07:39:37.297Z,28.35
2019-04-05T07:42:05.911Z,30.68
2019-04-05T07:44:34.451Z,31.50
2019-04-05T07:47:03.094Z,28.60
2019-04-05T07:49:31.628Z,30.50
2019-04-05T07:52:00.324Z,30.55
2019-04-05T07:54:28.993Z,30.88
2019-04-05T07:56:57.534Z,30.32
2019-04-05T07:59:26.181Z,29.72
2019-04-05T08:01:54.900Z,30.30
2019-04-05T08:04:23.572Z,30.37
2019-04-05T08:06:53.093Z,30.48
2019-04-05T08:09:21.832Z,30.90
2019-04-05T08:11:50.540Z,31.37
2019-04-05T08:14:20.141Z,29.80
2019-04-05T08:16:48.891Z,27.95
2019-04-05T08:19:17.446Z,31.05
2019-04-05T08:21:46.147Z,29.10
2019-04-05T08:24:14.809Z,27.75
2019-04-05T08:26:43.625Z,29.70
2019-04-05T08:29:12.176Z,31.48
2019-04-05T08:31:40.858Z,30.32
2019-04-05T08:34:09.543Z,31.25
2019-04-05T08:36:38.271Z,28.42
2019-04-05T08:39:07.653Z,28.70
2019-04-05T08:41:36.802Z,29.42
2019-04-05T08:44:05.432Z,29.00
2019-04-05T08:46:35.228Z,30.97
2019-04-05T08:49:10.498Z,29.90
2019-04-05T08:51:34.105Z,31.33
2019-04-05T08:54:02.653Z,31.52
2019-04-05T08:56:31.179Z,30.97
2019-04-05T08:58:59.808Z,30.45
2019-04-05T09:01:28.707Z,28.90
2019-04-05T09:03:57.511Z,27.98
2019-04-05T09:06:26.299Z,28.80
2019-04-05T09:08:55.226Z,29.20
2019-04-05T09:11:24.040Z,29.40
2019-04-05T09:13:52.790Z,28.98
2019-04-05T09:16:21.333Z,29.87
2019-04-05T09:18:49.947Z,29.48
2019-04-05T09:21:19.540Z,29.40
2019-04-05T09:23:48.089Z,29.45
2019-04-05T09:26:17.893Z,29.48
2019-04-05T09:28:47.427Z,31.37
2019-04-05T09:31:16.065Z,31.10
2019-04-05T09:33:44.662Z,29.42
2019-04-05T09:36:13.303Z,29.98
2019-04-05T09:38:41.931Z,28.92
2019-04-05T09:41:10.547Z,30.40
2019-04-05T09:43:39.198Z,29.75
2019-04-05T09:46:08.007Z,31.85
2019-04-05T09:48:36.784Z,30.37
2019-04-05T09:51:07.137Z,31.70
2019-04-05T09:53:36.062Z,29.10
2019-04-05T09:56:04.879Z,30.40
2019-04-05T09:58:33.658Z,30.45
2019-04-05T10:01:02.434Z,30.10
2019-04-05T10:03:32.238Z,30.68
2019-04-05T10:06:01.064Z,30.50
2019-04-05T10:08:29.679Z,30.30
2019-04-05T10:10:58.409Z,30.68
2019-04-05T10:13:27.044Z,29.98
2019-04-05T10:15:55.652Z,29.60
2019-04-05T10:18:24.316Z,30.65
2019-04-05T10:20:52.940Z,31.20
2019-04-05T10:23:21.475Z,30.97
2019-04-05T10:25:50.025Z,31.65
2019-04-05T10:28:18.672Z,32.17
2019-04-05T10:30:47.316Z,30.23
2019-04-05T10:33:15.905Z,30.90
2019-04-05T10:35:44.509Z,31.37
2019-04-05T10:38:13.131Z,29.95
2019-04-05T10:40:41.756Z,31.07
2019-04-05T10:43:10.459Z,30.72
2019-04-05T10:45:39.059Z,30.73
2019-04-05T10:48:07.613Z,31.68
2019-04-05T10:50:36.283Z,31.35
2019-04-05T10:53:04.903Z,30.88
2019-04-05T10:55:33.570Z,30.97
2019-04-05T10:58:02.155Z,31.25
2019-04-05T11:00:31.393Z,30.97
2019-04-05T11:02:59.993Z,31.65
2019-04-05T11:05:28.529Z,31.80
2019-04-05T11:07:57.142Z,30.97
2019-04-05T11:10:25.777Z,31.82
2019-04-05T11:12:54.379Z,30.62
2019-04-05T11:15:22.994Z,29.80
2019-04-05T11:17:51.613Z,32.87
2019-04-05T11:20:21.611Z,31.55
2019-04-05T11:22:51.292Z,30.90
2019-04-05T11:25:21.269Z,31.30
2019-04-05T11:27:50.876Z,31.15
2019-04-05T11:30:31.076Z,33.35
2019-04-05T11:32:59.697Z,32.30
2019-04-05T11:35:28.336Z,32.20
2019-04-05T11:37:56.937Z,31.68
2019-04-05T11:40:25.549Z,30.60
2019-04-05T11:42:54.316Z,30.10
2019-04-05T11:45:22.962Z,30.75
2019-04-05T11:47:53.647Z,30.08
2019-04-05T11:50:33.856Z,30.45
2019-04-05T11:52:52.839Z,30.82
2019-04-05T11:55:21.443Z,32.50
2019-04-05T11:57:50.067Z,32.40
2019-04-05T12:00:24.463Z,32.05
2019-04-05T12:02:57.369Z,32.05
2019-04-05T12:05:27.188Z,32.78
2019-04-05T12:08:00.602Z,31.50
2019-04-05T12:10:26.220Z,31.23
2019-04-05T12:12:54.852Z,31.37
2019-04-05T12:15:23.417Z,32.80
2019-04-05T12:17:51.979Z,32.45
2019-04-05T12:20:20.892Z,30.48
2019-04-05T12:22:52.323Z,33.42
2019-04-05T12:25:19.984Z,30.77
2019-04-05T12:27:48.587Z,30.95
2019-04-05T12:30:18.833Z,29.70
2019-04-05T12:32:48.911Z,31.52
2019-04-05T12:35:21.370Z,31.62
2019-04-05T12:37:50.471Z,30.82
2019-04-05T12:40:18.422Z,30.70
2019-04-05T12:42:47.336Z,30.48
2019-04-05T12:45:17.603Z,29.55
2019-04-05T12:47:46.468Z,31.73
2019-04-05T12:50:15.477Z,31.12
2019-04-05T12:52:44.196Z,30.17
2019-04-05T12:55:12.871Z,30.40
2019-04-05T12:57:41.452Z,31.62
2019-04-05T13:00:13.207Z,30.35
2019-04-05T13:02:41.093Z,31.35
2019-04-05T13:05:09.938Z,30.40
2019-04-05T13:07:38.603Z,31.55
2019-04-05T13:10:07.241Z,31.30
2019-04-05T13:12:35.845Z,33.50
2019-04-05T13:15:12.319Z,30.62
2019-04-05T13:17:35.284Z,30.60
2019-04-05T13:20:04.152Z,30.05
2019-04-05T13:22:33.127Z,31.27
2019-04-05T13:25:01.923Z,32.03
2019-04-05T13:27:30.563Z,31.77
2019-04-05T13:29:59.186Z,32.15
2019-04-05T13:32:27.971Z,32.48
2019-04-05T13:34:56.726Z,31.52
2019-04-05T13:37:25.493Z,30.62
2019-04-05T13:39:54.124Z,30.50
2019-04-05T13:42:22.828Z,31.60
2019-04-05T13:44:51.454Z,31.15
2019-04-05T13:47:20.115Z,30.60
2019-04-05T13:49:48.680Z,31.25
2019-04-05T13:52:17.329Z,30.35
2019-04-05T13:54:46.934Z,29.95
2019-04-05T13:57:15.533Z,30.95
2019-04-05T13:59:44.783Z,30.08
2019-04-05T14:02:13.507Z,30.48
2019-04-05T14:04:42.295Z,30.30
2019-04-05T14:07:10.896Z,30.90
2019-04-05T14:09:40.723Z,30.17
2019-04-05T14:12:10.248Z,31.17
2019-04-05T14:14:39.399Z,30.80
2019-04-05T14:17:09.402Z,30.35
2019-04-05T14:19:39.873Z,31.33
2019-04-05T14:22:09.237Z,29.60
2019-04-05T14:24:38.070Z,31.33
2019-04-05T14:27:06.711Z,31.62
2019-04-05T14:29:35.351Z,31.48
2019-04-05T14:32:19.713Z,32.28
2019-04-05T14:34:34.406Z,31.27
2019-04-05T14:37:03.291Z,32.78
2019-04-05T14:39:31.954Z,32.53
2019-04-05T14:42:09.482Z,33.65
2019-04-05T14:44:30.911Z,36.08
2019-04-05T14:46:59.596Z,32.45
2019-04-05T14:49:30.252Z,34.88
2019-04-05T14:52:00.815Z,36.35
2019-04-05T14:54:30.110Z,36.75
2019-04-05T14:57:02.389Z,35.98
2019-04-05T14:59:32.690Z,36.63
2019-04-05T15:02:00.104Z,36.03
2019-04-05T15:04:28.853Z,36.25
2019-04-05T15:06:57.600Z,37.50
2019-04-05T15:09:26.306Z,35.78
2019-04-05T15:11:56.497Z,36.75
2019-04-05T15:14:25.320Z,37.83
2019-04-05T15:16:53.971Z,35.88
2019-04-05T15:19:22.651Z,34.25
2019-04-05T15:21:51.304Z,35.20
2019-04-05T15:24:19.959Z,34.50
2019-04-05T15:26:49.433Z,34.00
2019-04-05T15:29:18.967Z,32.25
2019-04-05T15:31:47.664Z,33.90
2019-04-05T15:34:16.309Z,33.28
2019-04-05T15:36:45.096Z,32.67
2019-04-05T15:39:13.737Z,32.95
2019-04-05T15:41:42.437Z,32.25
2019-04-05T15:44:11.165Z,31.45
2019-04-05T15:46:41.417Z,32.75
2019-04-05T15:49:10.074Z,33.18
2019-04-05T15:51:38.783Z,30.88
2019-04-05T15:54:07.498Z,31.85
2019-04-05T15:56:37.350Z,31.00
2019-04-05T15:59:06.184Z,31.17
2019-04-05T16:01:35.283Z,30.25
2019-04-05T16:04:04.066Z,31.07
2019-04-05T16:06:32.760Z,29.70
2019-04-05T16:09:01.395Z,31.48
2019-04-05T16:11:31.449Z,29.80
2019-04-05T16:14:00.009Z,30.23
2019-04-05T16:16:28.679Z,30.57
2019-04-05T16:18:58.310Z,31.93
2019-04-05T16:21:27.060Z,30.48
2019-04-05T16:23:55.784Z,31.97
2019-04-05T16:26:26.035Z,30.82
2019-04-05T16:28:54.689Z,32.20
2019-04-05T16:31:24.313Z,31.90
2019-04-05T16:33:52.962Z,33.08
2019-04-05T16:36:21.602Z,32.55
2019-04-05T16:38:50.353Z,32.95
2019-04-05T16:41:19.027Z,32.38
2019-04-05T16:43:47.659Z,32.05
2019-04-05T16:46:16.328Z,32.75
2019-04-05T16:48:45.480Z,31.80
2019-04-05T16:51:14.217Z,32.40
2019-04-05T16:54:03.221Z,32.42
2019-04-05T16:56:36.054Z,33.20
2019-04-05T16:59:04.872Z,30.90
2019-04-05T17:01:33.645Z,31.17
2019-04-05T17:04:03.398Z,31.90
2019-04-05T17:06:32.020Z,31.12
2019-04-05T17:09:00.652Z,30.50
2019-04-05T17:11:30.943Z,30.15
2019-04-05T17:13:59.699Z,30.02
2019-04-05T17:16:28.411Z,30.57
2019-04-05T17:18:57.152Z,29.27
2019-04-05T17:21:26.846Z,30.35
2019-04-05T17:23:55.593Z,29.52
2019-04-05T17:26:24.363Z,27.00
2019-04-05T17:28:53.012Z,28.25
2019-04-05T17:31:21.678Z,29.00
2019-04-05T17:33:51.470Z,28.47
2019-04-05T17:36:20.165Z,27.40
2019-04-05T17:38:48.840Z,28.02
2019-04-05T17:41:17.694Z,28.07
2019-04-05T17:43:46.610Z,27.32
2019-04-05T17:46:15.255Z,28.53
2019-04-05T17:48:43.862Z,28.05
2019-04-05T17:51:12.541Z,27.00
2019-04-05T17:53:41.284Z,27.13
2019-04-05T17:56:10.490Z,28.20
2019-04-05T17:58:39.445Z,27.55
2019-04-05T18:01:08.193Z,27.07
2019-04-05T18:03:36.974Z,27.27
2019-04-05T18:06:05.702Z,28.20
2019-04-05T18:08:34.333Z,27.48
2019-04-05T18:11:06.108Z,26.85
2019-04-05T18:13:34.738Z,25.90
2019-04-05T18:16:03.696Z,25.50
2019-04-05T18:18:32.486Z,25.88
2019-04-05T18:21:01.292Z,25.15
2019-04-05T18:23:30.902Z,27.17
2019-04-05T18:25:59.565Z,25.37
2019-04-05T18:28:28.209Z,24.67
2019-04-05T18:30:56.870Z,26.12
2019-04-05T18:33:25.499Z,25.48
2019-04-05T18:35:54.168Z,26.35
2019-04-05T18:38:22.882Z,24.72
2019-04-05T18:40:51.547Z,25.77
2019-04-05T18:43:20.215Z,25.23
2019-04-05T18:45:48.894Z,26.00
2019-04-05T18:48:17.571Z,25.17
2019-04-05T18:50:48.521Z,24.43
2019-04-05T18:53:16.586Z,25.90
2019-04-05T18:55:45.198Z,26.07
2019-04-05T18:58:13.888Z,26.30
2019-04-05T19:00:42.583Z,24.30
2019-04-05T19:03:11.265Z,26.15
2019-04-05T19:05:39.838Z,25.75
2019-04-05T19:08:08.660Z,25.12
2019-04-05T19:10:37.641Z,25.55
2019-04-05T19:13:06.258Z,24.72
2019-04-05T19:15:35.087Z,25.90
2019-04-05T19:18:04.057Z,26.05
2019-04-05T19:20:32.815Z,26.80
2019-04-05T19:23:01.557Z,24.15
2019-04-05T19:25:30.278Z,25.23
2019-04-05T19:27:59.354Z,25.40
2019-04-05T19:50:34.343Z,25.37
2019-04-05T19:53:03.409Z,23.92
2019-04-05T19:55:32.342Z,23.10
2019-04-05T19:58:01.280Z,23.38
2019-04-05T20:00:30.046Z,24.85
2019-04-05T20:02:58.813Z,23.67
2019-04-05T20:05:27.658Z,24.15
2019-04-05T20:07:56.310Z,23.62
2019-04-05T20:10:25.028Z,24.35
2019-04-05T20:12:53.766Z,23.95
2019-04-05T20:15:22.488Z,24.37
2019-04-05T20:17:51.250Z,23.38
2019-04-05T20:20:19.988Z,23.85
2019-04-05T20:22:48.771Z,24.55
2019-04-05T20:25:17.505Z,24.47
2019-04-05T20:27:46.244Z,24.12
2019-04-05T20:30:15.469Z,24.90
2019-04-05T20:32:44.180Z,25.48
2019-04-05T20:35:13.080Z,25.15
2019-04-05T20:37:41.744Z,23.40
2019-04-05T20:40:11.066Z,23.42
2019-04-05T20:42:39.818Z,23.38
2019-04-05T20:45:08.520Z,23.47
2019-04-05T20:47:37.189Z,23.87
2019-04-05T20:50:06.724Z,22.25
2019-04-05T20:52:35.467Z,22.62
2019-04-05T20:55:04.753Z,23.98
2019-04-05T20:57:33.577Z,23.12
2019-04-05T21:00:02.229Z,23.05
2019-04-05T21:02:30.911Z,23.27
2019-04-05T21:04:59.695Z,23.35
2019-04-05T21:07:28.333Z,22.93
2019-04-05T21:09:57.004Z,22.07
2019-04-05T21:12:25.688Z,22.00
2019-04-05T21:14:55.373Z,22.87
2019-04-05T21:17:24.160Z,23.07
2019-04-05T21:19:53.815Z,21.68
2019-04-05T21:22:22.464Z,22.27
2019-04-05T21:24:51.249Z,22.00
2019-04-05T21:27:19.989Z,21.52
2019-04-05T21:29:48.717Z,20.48
2019-04-05T21:32:18.444Z,22.80
2019-04-05T21:34:47.096Z,23.73
2019-04-05T21:37:15.815Z,22.50
2019-04-05T21:39:44.490Z,22.17
2019-04-05T21:42:13.214Z,22.40
2019-04-05T21:44:41.785Z,22.40
2019-04-05T21:47:10.548Z,21.50
2019-04-05T21:49:39.284Z,22.02
2019-04-05T21:52:08.014Z,21.73
2019-04-05T21:54:47.108Z,23.10
2019-04-05T21:57:07.245Z,22.10
2019-04-05T21:59:38.741Z,22.13
2019-04-05T22:02:07.656Z,22.15
2019-04-05T22:04:36.363Z,22.25
2019-04-05T22:07:05.273Z,23.07
2019-04-05T22:09:33.954Z,23.52
2019-04-05T22:12:02.592Z,23.02
2019-04-05T22:14:31.251Z,22.85
2019-04-05T22:16:59.927Z,22.42
2019-04-05T22:19:29.158Z,22.90
2019-04-05T22:22:00.355Z,22.37
2019-04-05T22:24:29.026Z,23.20
2019-04-05T22:26:58.299Z,22.67
2019-04-05T22:29:27.082Z,22.17
2019-04-05T22:31:55.807Z,22.73
2019-04-05T22:34:24.587Z,23.05
2019-04-05T22:36:53.255Z,22.32
2019-04-05T22:39:21.987Z,23.50
2019-04-05T22:41:50.714Z,22.75
2019-04-05T22:44:19.469Z,21.52
2019-04-05T22:46:48.244Z,22.75
2019-04-05T22:49:16.973Z,22.60
2019-04-05T22:51:45.732Z,22.55
2019-04-05T22:54:14.473Z,22.75
2019-04-05T22:56:43.072Z,22.20
2019-04-05T22:59:12.801Z,20.97
2019-04-05T23:01:41.666Z,22.42
2019-04-05T23:04:10.388Z,21.73
2019-04-05T23:06:39.060Z,21.70
2019-04-05T23:09:07.767Z,22.15
2019-04-05T23:11:37.842Z,22.58
2019-04-05T23:14:06.557Z,20.95
2019-04-05T23:16:35.308Z,21.97
2019-04-05T23:19:04.044Z,21.95
2019-04-05T23:21:32.831Z,21.77
2019-04-05T23:24:01.467Z,22.48
2019-04-05T23:26:30.204Z,21.55
2019-04-05T23:28:59.001Z,21.00
2019-04-05T23:31:27.713Z,20.77
2019-04-05T23:33:56.403Z,21.55
2019-04-05T23:36:25.119Z,22.85
2019-04-05T23:38:53.837Z,21.35
2019-04-05T23:41:22.592Z,23.45
2019-04-05T23:43:51.237Z,22.93
2019-04-05T23:46:19.842Z,22.75
2019-04-05T23:48:48.563Z,23.07
2019-04-05T23:51:17.283Z,23.65
2019-04-05T23:53:46.030Z,22.32
2019-04-05T23:56:14.753Z,23.67
2019-04-05T23:58:43.345Z,23.25
